New Market, Virginia
Current Conditions -  °F | °C
As of 3:35 AM on Friday 31 Oct 2014 (Local Time) from K8W2 Reporting Station
Overcast Overcast  
Wind Chill: 34°   Ceiling: 5000
Heat Index: 34°   Visibility: 7mi
Dew Point: 33°   Wind: 0mph
Humidity: 97%   Direction: NA
Pressure: 30.02"   Gusts: NA
Location:  38.65°N, 78.67°W
Report Text: K8W2 310735Z AUTO 00000KT 7SM OVC050 01/01 A3002 RMK AO1 T00100006
Loading
Personal Weather Stations






























Interactive Weather Map
Tropical Storm Tracking
New forecast layout! Learn more

10-Day Weather Forecast

Advertisements
Track Severe Weather on mobile